createdAt,value
2023-08-20T00:04:49.662Z,19.71
2023-08-20T00:09:46.263Z,19.71
2023-08-20T00:15:06.009Z,19.70
2023-08-20T00:20:10.174Z,19.68
2023-08-20T00:25:07.232Z,19.65
2023-08-20T00:30:04.986Z,19.43
2023-08-20T00:35:02.108Z,19.32
2023-08-20T00:39:59.102Z,19.19
2023-08-20T00:44:55.522Z,19.09
2023-08-20T00:49:52.072Z,19.02
2023-08-20T00:54:49.192Z,18.99
2023-08-20T00:59:49.691Z,18.93
2023-08-20T01:04:48.217Z,18.90
2023-08-20T01:10:15.216Z,18.84
2023-08-20T01:15:14.994Z,18.81
2023-08-20T01:20:12.644Z,18.78
2023-08-20T01:25:27.723Z,18.74
2023-08-20T01:30:25.818Z,18.65
2023-08-20T01:35:25.311Z,18.63
2023-08-20T01:40:21.774Z,18.61
2023-08-20T01:45:19.676Z,18.54
2023-08-20T01:50:16.441Z,18.51
2023-08-20T01:55:13.077Z,18.58
2023-08-20T02:00:10.197Z,18.50
2023-08-20T02:05:06.985Z,18.45
2023-08-20T02:10:04.080Z,18.43
2023-08-20T02:15:00.586Z,18.28
2023-08-20T02:19:57.040Z,18.09
2023-08-20T02:24:53.481Z,18.16
2023-08-20T02:29:50.139Z,18.20
2023-08-20T02:34:51.130Z,18.21
2023-08-20T02:39:47.754Z,18.26
2023-08-20T02:44:44.166Z,18.29
2023-08-20T02:49:40.604Z,18.37
2023-08-20T02:54:37.093Z,18.43
2023-08-20T02:59:33.571Z,18.53
2023-08-20T03:04:30.477Z,18.61
2023-08-20T03:09:26.946Z,18.65
2023-08-20T03:14:25.394Z,18.65
2023-08-20T03:19:23.135Z,18.66
2023-08-20T03:24:19.636Z,18.74
2023-08-20T03:29:16.063Z,18.66
2023-08-20T03:34:12.517Z,18.68
2023-08-20T03:39:09.446Z,18.67
2023-08-20T03:44:06.225Z,18.57
2023-08-20T03:49:02.963Z,18.55
2023-08-20T03:53:59.617Z,18.42
2023-08-20T03:58:56.608Z,18.36
2023-08-20T04:03:53.100Z,18.36
2023-08-20T04:08:49.919Z,18.37
2023-08-20T04:13:46.675Z,18.36
2023-08-20T04:18:43.107Z,18.31
2023-08-20T04:23:39.533Z,18.28
2023-08-20T04:28:35.951Z,18.18
2023-08-20T04:33:32.388Z,18.20
2023-08-20T04:38:28.958Z,18.23
2023-08-20T04:43:25.397Z,18.28
2023-08-20T04:48:21.940Z,18.36
2023-08-20T04:53:18.728Z,18.46
2023-08-20T04:58:15.155Z,18.40
2023-08-20T05:03:11.696Z,18.49
2023-08-20T05:08:08.982Z,18.53
2023-08-20T05:13:05.862Z,18.51
2023-08-20T05:18:02.437Z,18.49
2023-08-20T05:22:58.939Z,18.55
2023-08-20T05:27:55.348Z,18.66
2023-08-20T05:32:51.842Z,18.79
2023-08-20T05:37:48.301Z,18.93
2023-08-20T05:42:44.718Z,19.19
2023-08-20T05:47:41.185Z,19.54
2023-08-20T05:52:37.928Z,19.94
2023-08-20T05:57:34.758Z,20.19
2023-08-20T06:02:31.384Z,20.36
2023-08-20T06:07:28.153Z,20.39
2023-08-20T06:12:24.931Z,20.77
2023-08-20T06:17:21.997Z,21.11
2023-08-20T06:22:18.496Z,21.31
2023-08-20T06:27:14.978Z,21.50
2023-08-20T06:32:11.452Z,21.52
2023-08-20T06:37:07.935Z,21.73
2023-08-20T06:42:04.795Z,22.11
2023-08-20T06:47:01.283Z,22.42
2023-08-20T06:51:57.707Z,22.54
2023-08-20T06:56:54.157Z,22.62
2023-08-20T07:01:50.649Z,22.75
2023-08-20T07:06:47.151Z,22.91
2023-08-20T07:11:43.891Z,23.20
2023-08-20T07:16:40.586Z,23.40
2023-08-20T07:21:37.057Z,23.48
2023-08-20T07:26:33.490Z,23.56
2023-08-20T07:31:32.491Z,23.86
2023-08-20T07:36:29.215Z,23.98
2023-08-20T07:41:26.267Z,24.11
2023-08-20T07:46:22.741Z,24.33
2023-08-20T07:51:19.525Z,24.46
2023-08-20T07:56:15.986Z,24.70
2023-08-20T08:01:14.617Z,24.78
2023-08-20T08:06:11.154Z,25.00
2023-08-20T08:11:07.675Z,25.23
2023-08-20T08:16:04.175Z,25.39
2023-08-20T08:21:00.592Z,25.36
2023-08-20T08:25:57.153Z,25.43
2023-08-20T08:30:53.682Z,25.83
2023-08-20T08:35:50.272Z,26.13
2023-08-20T08:40:46.876Z,26.50
2023-08-20T08:45:47.794Z,26.69
2023-08-20T08:50:44.546Z,26.82
2023-08-20T08:55:43.326Z,26.86
2023-08-20T09:00:40.278Z,26.92
2023-08-20T09:06:04.034Z,27.16
2023-08-20T09:11:02.152Z,27.03
2023-08-20T09:16:00.384Z,27.34
2023-08-20T09:20:58.216Z,27.68
2023-08-20T09:25:54.662Z,27.40
2023-08-20T09:30:56.539Z,27.29
2023-08-20T09:35:55.076Z,26.81
2023-08-20T09:40:53.723Z,26.93
2023-08-20T09:45:51.203Z,27.67
2023-08-20T09:50:49.246Z,28.26
2023-08-20T09:55:46.118Z,26.92
2023-08-20T10:00:43.269Z,27.47
2023-08-20T10:05:39.737Z,28.27
2023-08-20T10:10:36.072Z,28.77
2023-08-20T10:15:34.281Z,29.19
2023-08-20T10:20:34.035Z,27.87
2023-08-20T10:25:31.291Z,27.68
2023-08-20T10:30:27.780Z,27.99
2023-08-20T10:35:28.566Z,27.55
2023-08-20T10:40:59.147Z,26.96
2023-08-20T10:46:20.425Z,28.28
2023-08-20T10:51:19.313Z,28.96
2023-08-20T10:56:17.173Z,29.29
2023-08-20T11:01:19.761Z,28.17
2023-08-20T11:06:17.089Z,27.38
2023-08-20T11:11:14.136Z,26.32
2023-08-20T11:16:10.836Z,26.03
2023-08-20T11:21:09.114Z,25.92
2023-08-20T11:26:05.554Z,25.85
2023-08-20T11:31:02.665Z,25.57
2023-08-20T11:35:59.183Z,26.36
2023-08-20T11:40:55.641Z,27.48
2023-08-20T11:45:52.188Z,28.06
2023-08-20T11:50:48.829Z,27.53
2023-08-20T11:55:45.362Z,28.19
2023-08-20T12:00:42.314Z,27.48
2023-08-20T12:05:43.178Z,26.89
2023-08-20T12:10:43.405Z,27.01
2023-08-20T12:15:39.840Z,28.02
2023-08-20T12:20:36.948Z,28.39
2023-08-20T12:25:35.379Z,27.89
2023-08-20T12:30:34.964Z,28.30
2023-08-20T12:35:33.395Z,27.66
2023-08-20T12:40:30.133Z,27.89
2023-08-20T12:45:26.887Z,26.91
2023-08-20T12:50:23.297Z,26.97
2023-08-20T12:55:19.934Z,27.54
2023-08-20T13:00:17.386Z,27.84
2023-08-20T13:05:14.694Z,27.49
2023-08-20T13:10:11.908Z,26.98
2023-08-20T13:15:10.828Z,27.00
2023-08-20T13:20:09.339Z,27.55
2023-08-20T13:25:06.646Z,28.52
2023-08-20T13:30:04.047Z,27.75
2023-08-20T13:35:00.508Z,27.36
2023-08-20T13:39:56.911Z,28.28
2023-08-20T13:44:53.381Z,27.77
2023-08-20T13:49:49.772Z,27.57
2023-08-20T13:54:46.923Z,27.87
2023-08-20T13:59:43.357Z,27.30
2023-08-20T14:04:39.790Z,27.12
2023-08-20T14:09:37.147Z,27.13
2023-08-20T14:14:33.669Z,27.82
2023-08-20T14:19:30.073Z,27.54
2023-08-20T14:24:26.494Z,26.80
2023-08-20T14:29:22.926Z,26.74
2023-08-20T14:34:19.313Z,27.54
2023-08-20T14:39:15.819Z,27.09
2023-08-20T14:44:12.289Z,27.35
2023-08-20T14:49:08.786Z,27.57
2023-08-20T14:54:05.468Z,27.16
2023-08-20T14:59:01.856Z,27.42
2023-08-20T15:03:58.394Z,27.06
2023-08-20T15:08:54.847Z,26.98
2023-08-20T15:13:53.118Z,27.04
2023-08-20T15:18:49.532Z,26.79
2023-08-20T15:23:46.007Z,26.42
2023-08-20T15:28:42.393Z,26.63
2023-08-20T15:33:38.787Z,26.67
2023-08-20T15:38:35.367Z,26.57
2023-08-20T15:43:31.831Z,26.39
2023-08-20T15:48:28.306Z,26.53
2023-08-20T15:53:24.901Z,26.74
2023-08-20T15:58:21.386Z,26.38
2023-08-20T16:03:17.997Z,26.38
2023-08-20T16:08:14.545Z,26.60
2023-08-20T16:13:10.995Z,27.13
2023-08-20T16:18:07.701Z,27.21
2023-08-20T16:23:04.176Z,26.81
2023-08-20T16:28:00.703Z,26.72
2023-08-20T16:32:57.148Z,26.65
2023-08-20T16:37:53.701Z,26.59
2023-08-20T16:42:50.491Z,26.69
2023-08-20T16:47:46.882Z,27.37
2023-08-20T16:52:43.312Z,28.48
2023-08-20T16:57:40.534Z,29.58
2023-08-20T17:02:37.190Z,30.08
2023-08-20T17:07:33.714Z,31.31
2023-08-20T17:12:30.158Z,30.76
2023-08-20T17:17:30.407Z,31.01
2023-08-20T17:22:26.970Z,30.25
2023-08-20T17:27:23.608Z,29.65
2023-08-20T17:32:20.352Z,28.53
2023-08-20T17:37:16.837Z,28.62
2023-08-20T17:42:15.215Z,28.48
2023-08-20T17:47:11.623Z,28.01
2023-08-20T17:52:08.000Z,27.98
2023-08-20T17:57:04.733Z,27.19
2023-08-20T18:02:01.179Z,27.22
2023-08-20T18:06:57.586Z,26.22
2023-08-20T18:11:54.088Z,24.97
2023-08-20T18:16:50.561Z,24.41
2023-08-20T18:21:47.133Z,24.18
2023-08-20T18:26:43.521Z,23.90
2023-08-20T18:31:39.924Z,23.62
2023-08-20T18:36:36.415Z,23.42
2023-08-20T18:41:32.853Z,23.22
2023-08-20T18:46:29.341Z,22.99
2023-08-20T18:51:26.329Z,22.85
2023-08-20T18:56:25.619Z,22.63
2023-08-20T19:01:22.070Z,22.43
2023-08-20T19:06:18.971Z,22.33
2023-08-20T19:11:15.643Z,22.21
2023-08-20T19:16:12.123Z,21.99
2023-08-20T19:21:08.830Z,21.49
2023-08-20T19:26:05.253Z,21.26
2023-08-20T19:31:01.667Z,21.09
2023-08-20T19:35:58.049Z,20.94
2023-08-20T19:40:56.616Z,20.91
2023-08-20T19:45:54.192Z,20.83
2023-08-20T19:50:50.724Z,20.55
2023-08-20T19:55:47.137Z,20.50
2023-08-20T20:00:43.720Z,20.53
2023-08-20T20:05:40.243Z,20.54
2023-08-20T20:10:36.702Z,20.52
2023-08-20T20:15:33.156Z,20.50
2023-08-20T20:20:29.663Z,20.35
2023-08-20T20:25:26.096Z,20.34
2023-08-20T20:30:22.654Z,20.35
2023-08-20T20:35:19.212Z,20.34
2023-08-20T20:40:15.624Z,20.19
2023-08-20T20:45:12.279Z,20.07
2023-08-20T20:50:08.884Z,19.91
2023-08-20T20:55:06.060Z,19.92
2023-08-20T21:00:03.554Z,19.94
2023-08-20T21:04:59.926Z,19.91
2023-08-20T21:09:56.494Z,19.90
2023-08-20T21:14:52.918Z,19.88
2023-08-20T21:19:49.326Z,19.76
2023-08-20T21:24:46.032Z,19.66
2023-08-20T21:29:42.446Z,19.68
2023-08-20T21:34:39.750Z,19.68
2023-08-20T21:39:36.191Z,19.58
2023-08-20T21:44:32.592Z,19.51
2023-08-20T21:49:29.015Z,19.38
2023-08-20T21:54:25.540Z,19.36
2023-08-20T21:59:21.943Z,19.28
2023-08-20T22:04:18.324Z,19.16
2023-08-20T22:09:14.697Z,19.02
2023-08-20T22:14:11.160Z,18.92
2023-08-20T22:19:07.608Z,18.86
2023-08-20T22:24:04.220Z,18.69
2023-08-20T22:29:00.853Z,18.63
2023-08-20T22:33:57.596Z,18.67
2023-08-20T22:38:54.006Z,18.67
2023-08-20T22:43:50.435Z,18.67
2023-08-20T22:48:46.989Z,18.62
2023-08-20T22:53:43.435Z,18.65
2023-08-20T22:58:39.845Z,18.77
2023-08-20T23:03:36.450Z,18.76
2023-08-20T23:08:33.221Z,18.66
2023-08-20T23:13:29.656Z,18.59
2023-08-20T23:18:26.965Z,18.71
2023-08-20T23:23:23.482Z,18.75
2023-08-20T23:28:21.912Z,18.56
2023-08-20T23:33:18.793Z,18.37
2023-08-20T23:38:15.309Z,18.41
2023-08-20T23:43:11.732Z,18.37
2023-08-20T23:48:08.152Z,18.27
2023-08-20T23:53:04.789Z,18.36
2023-08-20T23:58:01.226Z,18.26
